createdAt,value
2022-10-05T00:00:53.553Z,2.15
2022-10-05T00:03:56.077Z,2.38
2022-10-05T00:06:58.315Z,2.38
2022-10-05T00:10:01.241Z,2.30
2022-10-05T00:13:04.319Z,2.20
2022-10-05T00:16:07.512Z,2.40
2022-10-05T00:19:10.752Z,2.30
2022-10-05T00:22:13.495Z,2.30
2022-10-05T00:25:16.396Z,2.13
2022-10-05T00:28:18.559Z,2.50
2022-10-05T00:31:21.066Z,2.20
2022-10-05T00:34:23.948Z,2.30
2022-10-05T00:37:26.511Z,2.33
2022-10-05T00:40:29.226Z,2.53
2022-10-05T00:43:31.731Z,2.20
2022-10-05T00:46:33.947Z,2.30
2022-10-05T00:49:36.800Z,2.22
2022-10-05T00:52:39.204Z,2.53
2022-10-05T00:55:42.142Z,2.30
2022-10-05T00:58:44.564Z,2.50
2022-10-05T01:01:46.644Z,2.50
2022-10-05T01:04:49.173Z,2.72
2022-10-05T01:07:51.901Z,2.33
2022-10-05T01:10:54.586Z,2.35
2022-10-05T01:13:57.361Z,2.47
2022-10-05T01:17:01.056Z,2.40
2022-10-05T01:20:03.208Z,2.50
2022-10-05T01:23:06.075Z,2.60
2022-10-05T01:26:10.390Z,2.15
2022-10-05T01:29:13.109Z,2.30
2022-10-05T01:32:15.836Z,2.50
2022-10-05T01:35:18.597Z,2.50
2022-10-05T01:38:21.169Z,2.40
2022-10-05T01:41:23.611Z,2.70
2022-10-05T01:44:25.987Z,2.50
2022-10-05T01:47:28.890Z,2.40
2022-10-05T01:50:31.563Z,2.40
2022-10-05T01:53:33.999Z,2.30
2022-10-05T01:56:36.802Z,2.40
2022-10-05T01:59:39.883Z,2.25
2022-10-05T02:02:42.064Z,2.53
2022-10-05T02:05:44.956Z,2.53
2022-10-05T02:08:47.831Z,2.50
2022-10-05T02:11:52.192Z,2.40
2022-10-05T02:14:54.837Z,2.70
2022-10-05T02:17:57.307Z,2.45
2022-10-05T02:20:59.840Z,2.60
2022-10-05T02:24:03.100Z,2.60
2022-10-05T02:27:05.502Z,2.53
2022-10-05T02:30:10.513Z,2.60
2022-10-05T02:33:18.780Z,2.53
2022-10-05T02:36:21.440Z,2.33
2022-10-05T02:39:24.043Z,2.38
2022-10-05T02:42:26.725Z,2.72
2022-10-05T02:45:29.858Z,2.30
2022-10-05T02:48:32.950Z,2.35
2022-10-05T02:51:35.307Z,2.40
2022-10-05T02:54:37.439Z,2.42
2022-10-05T02:57:40.285Z,2.45
2022-10-05T03:00:42.842Z,2.58
2022-10-05T03:03:45.396Z,2.50
2022-10-05T03:06:48.409Z,2.78
2022-10-05T03:09:51.063Z,2.47
2022-10-05T03:12:53.240Z,2.47
2022-10-05T03:15:58.178Z,2.10
2022-10-05T03:19:01.091Z,2.65
2022-10-05T03:22:03.741Z,2.42
2022-10-05T03:25:09.213Z,2.50
2022-10-05T03:28:11.925Z,2.50
2022-10-05T03:31:15.362Z,2.30
2022-10-05T03:34:17.948Z,2.38
2022-10-05T03:37:20.714Z,2.47
2022-10-05T03:40:23.503Z,2.67
2022-10-05T03:43:26.401Z,2.60
2022-10-05T03:46:29.572Z,2.75
2022-10-05T03:49:32.061Z,2.42
2022-10-05T03:52:34.593Z,2.70
2022-10-05T03:55:37.430Z,2.70
2022-10-05T03:58:39.829Z,2.90
2022-10-05T04:01:43.011Z,2.60
2022-10-05T04:04:45.934Z,2.50
2022-10-05T04:07:48.371Z,2.97
2022-10-05T04:10:52.486Z,2.53
2022-10-05T04:13:58.674Z,2.50
2022-10-05T04:17:01.272Z,2.65
2022-10-05T04:20:04.044Z,2.50
2022-10-05T04:23:06.810Z,2.38
2022-10-05T04:26:09.510Z,2.55
2022-10-05T04:29:12.770Z,2.58
2022-10-05T04:32:16.012Z,2.70
2022-10-05T04:35:19.529Z,2.40
2022-10-05T04:38:22.117Z,2.60
2022-10-05T04:41:26.885Z,2.80
2022-10-05T04:44:29.357Z,2.38
2022-10-05T04:47:32.324Z,2.53
2022-10-05T04:50:35.232Z,2.20
2022-10-05T04:53:42.269Z,2.30
2022-10-05T04:56:45.591Z,2.88
2022-10-05T04:59:48.055Z,2.58
2022-10-05T05:02:50.201Z,2.55
2022-10-05T05:06:15.865Z,2.40
2022-10-05T05:09:14.945Z,2.50
2022-10-05T05:12:18.613Z,2.60
2022-10-05T05:15:22.363Z,2.70
2022-10-05T05:18:26.356Z,2.60
2022-10-05T05:21:28.784Z,2.30
2022-10-05T05:24:31.375Z,2.42
2022-10-05T05:27:34.274Z,2.35
2022-10-05T05:30:36.928Z,2.50
2022-10-05T05:33:39.399Z,2.60
2022-10-05T05:36:42.040Z,2.50
2022-10-05T05:39:44.407Z,2.65
2022-10-05T05:42:46.892Z,2.38
2022-10-05T05:45:49.831Z,2.60
2022-10-05T05:48:52.837Z,2.72
2022-10-05T05:51:55.928Z,2.75
2022-10-05T05:54:58.396Z,2.75
2022-10-05T05:58:01.954Z,2.55
2022-10-05T06:01:05.667Z,2.40
2022-10-05T06:04:08.252Z,2.70
2022-10-05T06:07:10.803Z,2.65
2022-10-05T06:10:13.183Z,2.38
2022-10-05T06:13:22.586Z,2.60
2022-10-05T06:16:25.798Z,2.53
2022-10-05T06:19:28.822Z,2.42
2022-10-05T06:22:31.862Z,2.45
2022-10-05T06:25:34.241Z,2.65
2022-10-05T06:28:36.750Z,2.50
2022-10-05T06:31:39.354Z,2.40
2022-10-05T06:34:43.166Z,2.88
2022-10-05T06:37:47.840Z,2.75
2022-10-05T06:40:50.334Z,2.60
2022-10-05T06:43:52.947Z,2.60
2022-10-05T06:47:28.101Z,2.55
2022-10-05T06:50:49.131Z,2.50
2022-10-05T06:54:17.571Z,2.15
2022-10-05T06:57:20.120Z,2.50
2022-10-05T07:00:22.558Z,2.60
2022-10-05T07:03:27.243Z,2.47
2022-10-05T07:06:29.695Z,2.65
2022-10-05T07:09:52.053Z,2.40
2022-10-05T07:12:54.893Z,2.50
2022-10-05T07:15:57.550Z,2.15
2022-10-05T07:19:01.794Z,2.40
2022-10-05T07:22:04.321Z,2.35
2022-10-05T07:25:07.775Z,2.40
2022-10-05T07:28:10.254Z,2.40
2022-10-05T07:31:13.685Z,2.47
2022-10-05T07:34:17.057Z,2.45
2022-10-05T07:37:24.478Z,2.70
2022-10-05T07:40:27.438Z,2.55
2022-10-05T07:43:40.332Z,2.40
2022-10-05T07:46:51.817Z,2.50
2022-10-05T07:49:55.055Z,2.47
2022-10-05T07:52:57.761Z,2.50
2022-10-05T07:56:00.991Z,2.28
2022-10-05T07:59:04.247Z,2.25
2022-10-05T08:02:07.776Z,2.10
2022-10-05T08:05:10.495Z,2.70
2022-10-05T08:08:14.426Z,2.40
2022-10-05T08:11:18.702Z,2.40
2022-10-05T08:14:21.307Z,2.28
2022-10-05T08:17:25.760Z,2.38
2022-10-05T08:20:28.907Z,2.10
2022-10-05T08:23:31.039Z,2.58
2022-10-05T08:26:33.583Z,2.22
2022-10-05T08:29:36.168Z,2.47
2022-10-05T08:32:39.140Z,2.42
2022-10-05T08:35:41.985Z,2.33
2022-10-05T08:38:44.090Z,2.25
2022-10-05T08:41:46.729Z,2.50
2022-10-05T08:44:49.695Z,2.47
2022-10-05T08:47:52.263Z,2.38
2022-10-05T08:50:55.132Z,1.98
2022-10-05T08:53:58.179Z,2.28
2022-10-05T08:57:00.996Z,1.95
2022-10-05T09:00:03.096Z,2.50
2022-10-05T09:03:05.687Z,2.10
2022-10-05T09:06:08.129Z,2.10
2022-10-05T09:09:11.299Z,2.30
2022-10-05T09:12:14.825Z,2.10
2022-10-05T09:15:26.454Z,2.22
2022-10-05T09:18:29.385Z,2.25
2022-10-05T09:21:32.185Z,2.00
2022-10-05T09:24:34.750Z,2.30
2022-10-05T09:27:37.415Z,1.83
2022-10-05T09:30:39.945Z,2.13
2022-10-05T09:33:43.297Z,2.00
2022-10-05T09:36:46.151Z,1.88
2022-10-05T09:39:48.810Z,1.95
2022-10-05T09:42:51.412Z,2.00
2022-10-05T09:45:54.089Z,2.00
2022-10-05T09:48:56.726Z,1.77
2022-10-05T09:51:59.577Z,1.75
2022-10-05T09:55:02.384Z,1.88
2022-10-05T09:58:05.566Z,1.98
2022-10-05T10:01:15.989Z,1.85
2022-10-05T10:04:30.932Z,1.88
2022-10-05T10:07:33.781Z,2.15
2022-10-05T10:10:36.325Z,1.80
2022-10-05T10:13:39.533Z,2.15
2022-10-05T10:16:42.211Z,1.90
2022-10-05T10:19:45.886Z,1.73
2022-10-05T10:22:48.260Z,1.67
2022-10-05T10:25:50.825Z,2.10
2022-10-05T10:28:53.434Z,2.00
2022-10-05T10:31:56.034Z,2.10
2022-10-05T10:34:58.198Z,2.17
2022-10-05T10:38:00.801Z,1.90
2022-10-05T10:41:03.740Z,1.92
2022-10-05T10:44:06.539Z,1.80
2022-10-05T10:47:09.795Z,1.63
2022-10-05T10:50:12.225Z,1.67
2022-10-05T10:53:14.354Z,2.00
2022-10-05T10:56:16.898Z,1.70
2022-10-05T10:59:19.006Z,1.73
2022-10-05T11:02:21.211Z,1.80
2022-10-05T11:05:23.329Z,1.80
2022-10-05T11:08:26.357Z,2.20
2022-10-05T11:11:29.114Z,1.90
2022-10-05T11:14:32.033Z,2.10
2022-10-05T11:17:34.474Z,1.90
2022-10-05T11:20:37.179Z,1.80
2022-10-05T11:23:39.932Z,1.90
2022-10-05T11:26:43.213Z,1.70
2022-10-05T11:29:46.547Z,1.67
2022-10-05T11:32:49.053Z,1.85
2022-10-05T11:35:52.221Z,1.70
2022-10-05T11:38:54.574Z,1.80
2022-10-05T11:41:57.211Z,1.58
2022-10-05T11:44:59.682Z,1.50
2022-10-05T11:48:02.392Z,1.70
2022-10-05T11:51:05.286Z,1.75
2022-10-05T11:54:08.192Z,1.70
2022-10-05T11:57:11.418Z,1.60
2022-10-05T12:00:14.973Z,1.70
2022-10-05T12:03:17.907Z,1.60
2022-10-05T12:06:20.035Z,1.60
2022-10-05T12:09:22.976Z,1.60
2022-10-05T12:12:25.841Z,1.83
2022-10-05T12:15:28.757Z,1.60
2022-10-05T12:18:31.183Z,1.60
2022-10-05T12:21:33.745Z,1.80
2022-10-05T12:24:36.674Z,1.85
2022-10-05T12:27:39.454Z,1.90
2022-10-05T12:30:41.605Z,1.75
2022-10-05T12:33:44.506Z,1.73
2022-10-05T12:37:03.489Z,1.40
2022-10-05T12:40:06.945Z,1.58
2022-10-05T12:43:09.500Z,1.55
2022-10-05T12:46:12.406Z,1.67
2022-10-05T12:49:15.301Z,1.58
2022-10-05T12:52:17.930Z,1.40
2022-10-05T12:55:20.115Z,1.52
2022-10-05T12:58:22.995Z,1.50
2022-10-05T13:01:26.103Z,1.80
2022-10-05T13:04:28.827Z,1.42
2022-10-05T13:07:31.196Z,1.48
2022-10-05T13:10:33.594Z,1.50
2022-10-05T13:13:36.021Z,1.55
2022-10-05T13:16:38.606Z,1.30
2022-10-05T13:19:41.271Z,1.40
2022-10-05T13:22:43.390Z,1.40
2022-10-05T13:25:46.029Z,1.40
2022-10-05T13:28:48.953Z,1.63
2022-10-05T13:31:51.903Z,1.35
2022-10-05T13:34:54.680Z,1.48
2022-10-05T13:37:57.319Z,1.40
2022-10-05T13:40:59.996Z,1.50
2022-10-05T13:44:03.940Z,1.40
2022-10-05T13:47:06.394Z,1.50
2022-10-05T13:50:08.791Z,1.30
2022-10-05T13:53:11.952Z,1.50
2022-10-05T13:56:14.360Z,1.30
2022-10-05T13:59:16.822Z,1.33
2022-10-05T14:02:20.007Z,1.42
2022-10-05T14:05:22.913Z,1.40
2022-10-05T14:08:25.525Z,1.30
2022-10-05T14:11:27.646Z,1.30
2022-10-05T14:14:30.235Z,1.30
2022-10-05T14:17:33.432Z,1.15
2022-10-05T14:20:36.733Z,1.30
2022-10-05T14:23:39.952Z,1.40
2022-10-05T14:26:43.060Z,1.20
2022-10-05T14:29:46.267Z,1.20
2022-10-05T14:32:49.205Z,1.20
2022-10-05T14:35:51.871Z,1.20
2022-10-05T14:38:54.504Z,1.50
2022-10-05T14:41:57.086Z,1.20
2022-10-05T14:44:59.300Z,1.30
2022-10-05T14:48:01.862Z,1.33
2022-10-05T14:51:04.013Z,1.20
2022-10-05T14:54:06.557Z,1.40
2022-10-05T14:57:09.216Z,1.30
2022-10-05T15:00:11.765Z,1.42
2022-10-05T15:03:14.084Z,1.35
2022-10-05T15:06:17.037Z,1.50
2022-10-05T15:09:19.295Z,1.30
2022-10-05T15:12:21.390Z,1.40
2022-10-05T15:15:24.258Z,1.33
2022-10-05T15:18:31.687Z,1.30
2022-10-05T15:21:34.735Z,1.27
2022-10-05T15:24:42.672Z,1.17
2022-10-05T15:27:46.292Z,1.60
2022-10-05T15:30:48.925Z,1.30
2022-10-05T15:33:51.886Z,1.25
2022-10-05T15:36:54.283Z,1.50
2022-10-05T15:39:56.930Z,1.50
2022-10-05T15:42:59.932Z,1.30
2022-10-05T15:46:02.579Z,1.25
2022-10-05T15:49:05.198Z,1.20
2022-10-05T15:52:07.348Z,1.30
2022-10-05T15:55:09.881Z,1.50
2022-10-05T15:58:12.346Z,1.38
2022-10-05T16:01:15.258Z,1.27
2022-10-05T16:04:18.804Z,1.30
2022-10-05T16:07:22.440Z,1.20
2022-10-05T16:10:25.299Z,1.30
2022-10-05T16:13:27.856Z,1.20
2022-10-05T16:16:31.004Z,1.30
2022-10-05T16:19:34.239Z,1.30
2022-10-05T16:22:39.995Z,1.40
2022-10-05T16:25:46.018Z,1.38
2022-10-05T16:28:48.888Z,1.20
2022-10-05T16:31:51.805Z,1.27
2022-10-05T16:34:54.674Z,1.35
2022-10-05T16:37:56.797Z,1.02
2022-10-05T16:41:02.081Z,1.33
2022-10-05T16:44:04.542Z,1.33
2022-10-05T16:47:07.641Z,1.23
2022-10-05T16:50:10.473Z,1.38
2022-10-05T16:53:12.602Z,1.20
2022-10-05T16:56:15.155Z,1.30
2022-10-05T16:59:17.225Z,1.20
2022-10-05T17:02:20.177Z,1.50
2022-10-05T17:05:22.595Z,1.30
2022-10-05T17:08:25.548Z,1.40
2022-10-05T17:11:28.061Z,1.25
2022-10-05T17:14:30.542Z,1.10
2022-10-05T17:17:33.497Z,1.30
2022-10-05T17:20:40.313Z,1.23
2022-10-05T17:23:45.425Z,1.15
2022-10-05T17:26:48.291Z,1.30
2022-10-05T17:29:52.030Z,1.38
2022-10-05T17:32:56.512Z,1.10
2022-10-05T17:35:59.142Z,1.20
2022-10-05T17:39:01.630Z,1.20
2022-10-05T17:42:04.313Z,1.30
2022-10-05T17:45:06.855Z,1.40
2022-10-05T17:48:09.297Z,1.20
2022-10-05T17:51:11.450Z,1.35
2022-10-05T17:54:14.001Z,1.27
2022-10-05T17:57:16.841Z,1.30
2022-10-05T18:00:20.019Z,1.30
2022-10-05T18:03:22.953Z,1.35
2022-10-05T18:06:25.163Z,1.20
2022-10-05T18:09:27.740Z,1.13
2022-10-05T18:12:30.424Z,1.27
2022-10-05T18:15:33.366Z,1.20
2022-10-05T18:18:36.270Z,1.48
2022-10-05T18:21:39.193Z,1.35
2022-10-05T18:24:41.896Z,1.13
2022-10-05T18:27:44.755Z,1.13
2022-10-05T18:30:46.965Z,1.30
2022-10-05T18:33:49.548Z,1.38
2022-10-05T18:36:52.445Z,1.42
2022-10-05T18:39:54.887Z,1.25
2022-10-05T18:42:58.047Z,1.30
2022-10-05T18:46:00.579Z,1.42
2022-10-05T18:49:02.747Z,1.10
2022-10-05T18:52:05.350Z,1.42
2022-10-05T18:55:07.948Z,1.23
2022-10-05T18:58:10.837Z,1.48
2022-10-05T19:01:13.845Z,1.40
2022-10-05T19:04:16.464Z,1.30
2022-10-05T19:07:19.101Z,1.35
2022-10-05T19:10:21.731Z,1.33
2022-10-05T19:13:24.930Z,1.20
2022-10-05T19:16:27.938Z,1.30
2022-10-05T19:19:33.481Z,1.40
2022-10-05T19:22:36.311Z,1.30
2022-10-05T19:25:39.207Z,1.40
2022-10-05T19:28:42.082Z,1.38
2022-10-05T19:31:44.505Z,1.50
2022-10-05T19:34:46.929Z,1.50
2022-10-05T19:37:49.787Z,1.40
2022-10-05T19:40:52.438Z,1.30
2022-10-05T19:43:55.264Z,1.40
2022-10-05T19:46:57.873Z,1.15
2022-10-05T19:50:01.123Z,1.40
2022-10-05T19:53:04.385Z,1.42
2022-10-05T19:56:07.548Z,1.40
2022-10-05T19:59:09.991Z,1.40
2022-10-05T20:02:12.972Z,1.15
2022-10-05T20:05:15.741Z,1.20
2022-10-05T20:08:18.581Z,1.40
2022-10-05T20:11:20.954Z,1.40
2022-10-05T20:14:23.555Z,1.27
2022-10-05T20:17:26.195Z,1.30
2022-10-05T20:20:28.994Z,1.35
2022-10-05T20:23:31.365Z,1.30
2022-10-05T20:26:33.818Z,1.30
2022-10-05T20:29:36.642Z,1.27
2022-10-05T20:32:39.206Z,1.15
2022-10-05T20:35:42.479Z,1.30
2022-10-05T20:38:45.289Z,1.10
2022-10-05T20:41:48.194Z,1.10
2022-10-05T20:44:56.489Z,1.10
2022-10-05T20:47:58.837Z,1.10
2022-10-05T20:51:01.760Z,1.10
2022-10-05T20:54:04.920Z,1.20
2022-10-05T20:57:07.766Z,1.10
2022-10-05T21:00:10.626Z,1.40
2022-10-05T21:03:13.422Z,1.30
2022-10-05T21:06:15.971Z,1.15
2022-10-05T21:09:18.385Z,1.00
2022-10-05T21:12:21.310Z,1.00
2022-10-05T21:15:23.918Z,1.10
2022-10-05T21:18:26.912Z,0.90
2022-10-05T21:21:30.222Z,1.10
2022-10-05T21:24:33.074Z,1.00
2022-10-05T21:27:35.920Z,1.05
2022-10-05T21:30:39.746Z,1.20
2022-10-05T21:33:43.029Z,0.93
2022-10-05T21:36:46.718Z,1.10
2022-10-05T21:39:49.110Z,0.90
2022-10-05T21:42:51.508Z,0.90
2022-10-05T21:45:54.742Z,1.00
2022-10-05T21:48:57.495Z,0.90
2022-10-05T21:52:00.575Z,0.90
2022-10-05T21:55:03.742Z,1.00
2022-10-05T21:58:06.515Z,0.95
2022-10-05T22:01:08.728Z,0.90
2022-10-05T22:04:10.907Z,1.02
2022-10-05T22:07:12.805Z,0.98
2022-10-05T22:10:15.362Z,0.90
2022-10-05T22:13:17.550Z,0.98
2022-10-05T22:16:20.445Z,1.00
2022-10-05T22:19:23.635Z,0.80
2022-10-05T22:22:26.635Z,0.90
2022-10-05T22:25:29.992Z,1.00
2022-10-05T22:28:32.999Z,0.90
2022-10-05T22:31:36.233Z,0.70
2022-10-05T22:34:38.899Z,0.80
2022-10-05T22:37:41.398Z,0.90
2022-10-05T22:40:43.550Z,0.80
2022-10-05T22:43:46.047Z,0.90
2022-10-05T22:46:48.962Z,0.88
2022-10-05T22:49:51.291Z,0.80
2022-10-05T22:52:53.890Z,0.90
2022-10-05T22:55:56.343Z,1.00
2022-10-05T22:58:58.680Z,0.80
2022-10-05T23:02:00.958Z,1.00
2022-10-05T23:05:03.671Z,0.80
2022-10-05T23:08:05.753Z,0.90
2022-10-05T23:11:08.252Z,0.80
2022-10-05T23:14:11.433Z,0.70
2022-10-05T23:17:14.328Z,0.80
2022-10-05T23:20:16.425Z,0.80
2022-10-05T23:23:19.263Z,0.80
2022-10-05T23:26:22.037Z,0.75
2022-10-05T23:29:24.214Z,0.80
2022-10-05T23:32:26.654Z,0.77
2022-10-05T23:35:29.505Z,1.02
2022-10-05T23:38:32.396Z,0.60
2022-10-05T23:41:34.897Z,0.90
2022-10-05T23:44:36.957Z,1.00
2022-10-05T23:47:40.023Z,0.70
2022-10-05T23:50:42.909Z,0.90
2022-10-05T23:53:45.748Z,0.90
2022-10-05T23:56:48.592Z,0.70
2022-10-05T23:59:51.173Z,0.80
